createdAt,value
2022-11-01T00:01:44.169Z,10.37
2022-11-01T00:04:29.379Z,10.57
2022-11-01T00:07:14.749Z,9.07
2022-11-01T00:09:59.943Z,8.03
2022-11-01T00:12:45.990Z,9.07
2022-11-01T00:15:31.601Z,9.73
2022-11-01T00:18:16.855Z,10.53
2022-11-01T00:21:02.089Z,9.13
2022-11-01T00:23:47.790Z,8.57
2022-11-01T00:26:33.107Z,9.43
2022-11-01T00:29:18.426Z,8.43
2022-11-01T00:32:03.682Z,8.53
2022-11-01T00:34:49.025Z,8.00
2022-11-01T00:37:34.230Z,8.80
2022-11-01T00:40:19.623Z,9.43
2022-11-01T00:43:04.919Z,10.07
2022-11-01T00:45:50.379Z,8.20
2022-11-01T00:48:35.959Z,7.90
2022-11-01T00:51:21.199Z,7.23
2022-11-01T00:54:06.553Z,8.90
2022-11-01T00:56:51.774Z,9.10
2022-11-01T00:59:40.914Z,8.33
2022-11-01T01:02:26.586Z,9.37
2022-11-01T01:05:12.071Z,9.37
2022-11-01T01:07:57.908Z,8.33
2022-11-01T01:10:43.551Z,7.77
2022-11-01T01:13:28.661Z,7.27
2022-11-01T01:16:13.960Z,7.43
2022-11-01T01:18:59.203Z,8.83
2022-11-01T01:21:44.351Z,8.43
2022-11-01T01:24:29.687Z,8.50
2022-11-01T01:27:16.422Z,8.40
2022-11-01T01:30:01.560Z,8.57
2022-11-01T01:32:46.896Z,7.00
2022-11-01T01:35:32.456Z,7.73
2022-11-01T01:38:17.741Z,7.83
2022-11-01T01:41:22.031Z,6.70
2022-11-01T01:44:44.496Z,5.83
2022-11-01T01:47:33.761Z,7.87
2022-11-01T01:50:27.865Z,6.80
2022-11-01T01:53:19.337Z,7.43
2022-11-01T01:56:10.279Z,8.97
2022-11-01T01:59:18.358Z,9.03
2022-11-01T02:02:04.194Z,6.87
2022-11-01T02:04:58.326Z,7.40
2022-11-01T02:07:44.823Z,11.07
2022-11-01T02:10:31.255Z,6.73
2022-11-01T02:13:16.619Z,8.37
2022-11-01T02:16:46.317Z,7.83
2022-11-01T02:19:40.491Z,6.80
2022-11-01T02:26:00.265Z,7.70
2022-11-01T02:29:05.953Z,6.30
2022-11-01T02:32:17.000Z,7.30
2022-11-01T02:35:33.238Z,7.17
2022-11-01T02:38:34.693Z,6.07
2022-11-01T02:41:55.589Z,6.80
2022-11-01T02:44:49.162Z,6.77
2022-11-01T02:47:35.222Z,7.97
2022-11-01T02:50:21.066Z,6.13
2022-11-01T02:53:07.313Z,6.97
2022-11-01T02:55:53.431Z,7.10
2022-11-01T02:58:39.356Z,6.80
2022-11-01T03:01:28.527Z,8.80
2022-11-01T03:04:13.916Z,6.80
2022-11-01T03:07:04.803Z,5.63
2022-11-01T03:09:50.252Z,6.43
2022-11-01T03:12:44.455Z,6.23
2022-11-01T03:15:34.101Z,6.40
2022-11-01T03:18:31.624Z,6.53
2022-11-01T03:21:23.513Z,4.73
2022-11-01T03:24:24.837Z,6.13
2022-11-01T03:27:25.701Z,5.30
2022-11-01T03:30:14.232Z,6.67
2022-11-01T03:33:00.395Z,6.57
2022-11-01T03:35:50.353Z,6.07
2022-11-01T03:38:41.465Z,6.17
2022-11-01T03:41:29.175Z,7.17
2022-11-01T03:44:14.473Z,5.43
2022-11-01T03:46:59.786Z,5.97
2022-11-01T03:49:45.114Z,5.23
2022-11-01T03:52:30.310Z,5.90
2022-11-01T03:55:20.385Z,5.30
2022-11-01T03:58:07.544Z,4.30
2022-11-01T04:00:55.816Z,6.13
2022-11-01T04:03:41.952Z,6.47
2022-11-01T04:06:27.447Z,6.70
2022-11-01T04:09:12.899Z,6.30
2022-11-01T04:11:58.137Z,7.07
2022-11-01T04:15:06.620Z,8.17
2022-11-01T04:18:30.138Z,6.70
2022-11-01T04:21:18.046Z,8.07
2022-11-01T04:24:03.800Z,7.07
2022-11-01T04:26:49.323Z,9.30
2022-11-01T04:29:34.596Z,7.60
2022-11-01T04:32:20.027Z,6.87
2022-11-01T04:35:08.605Z,8.07
2022-11-01T04:37:59.047Z,6.70
2022-11-01T04:40:44.642Z,7.57
2022-11-01T04:43:30.092Z,8.17
2022-11-01T04:46:16.257Z,5.77
2022-11-01T04:49:01.629Z,6.70
2022-11-01T04:51:46.743Z,6.43
2022-11-01T04:54:33.646Z,7.57
2022-11-01T04:57:25.230Z,6.77
2022-11-01T05:00:12.405Z,7.00
2022-11-01T05:03:02.967Z,8.60
2022-11-01T05:05:48.433Z,9.00
2022-11-01T05:08:33.874Z,7.03
2022-11-01T05:11:21.805Z,9.23
2022-11-01T05:14:07.532Z,6.87
2022-11-01T05:16:55.870Z,7.83
2022-11-01T05:19:41.285Z,7.40
2022-11-01T05:22:26.707Z,6.47
2022-11-01T05:25:11.937Z,8.50
2022-11-01T05:28:00.691Z,32.60
2022-11-01T05:30:45.797Z,52.50
2022-11-01T05:33:31.122Z,19.63
2022-11-01T05:36:16.347Z,22.57
2022-11-01T05:39:01.547Z,19.67
2022-11-01T05:41:46.919Z,8.07
2022-11-01T05:44:32.128Z,10.80
2022-11-01T05:47:18.167Z,10.73
2022-11-01T05:50:03.577Z,9.27
2022-11-01T05:52:50.089Z,10.13
2022-11-01T05:55:36.537Z,10.63
2022-11-01T05:58:26.384Z,11.93
2022-11-01T06:01:17.209Z,8.80
2022-11-01T06:04:02.630Z,9.57
2022-11-01T06:06:48.264Z,9.10
2022-11-01T06:09:33.484Z,8.17
2022-11-01T06:12:18.800Z,9.77
2022-11-01T06:15:04.446Z,8.30
2022-11-01T06:17:56.884Z,12.30
2022-11-01T06:20:42.419Z,11.80
2022-11-01T06:23:27.708Z,11.43
2022-11-01T06:26:13.113Z,10.70
2022-11-01T06:29:04.754Z,11.70
2022-11-01T06:31:50.259Z,8.27
2022-11-01T06:34:36.908Z,7.63
2022-11-01T06:37:23.800Z,11.57
2022-11-01T06:40:09.663Z,9.37
2022-11-01T06:43:02.775Z,13.83
2022-11-01T06:45:48.123Z,10.98
2022-11-01T06:48:34.006Z,7.73
2022-11-01T06:51:19.130Z,8.70
2022-11-01T06:54:04.278Z,11.57
2022-11-01T06:56:49.633Z,9.93
2022-11-01T06:59:34.770Z,9.33
2022-11-01T07:02:21.677Z,10.60
2022-11-01T07:05:09.987Z,7.80
2022-11-01T07:07:55.306Z,10.17
2022-11-01T07:10:43.134Z,9.87
2022-11-01T07:13:33.750Z,9.03
2022-11-01T07:16:19.337Z,7.90
2022-11-01T07:19:04.646Z,9.73
2022-11-01T07:21:50.417Z,12.03
2022-11-01T07:24:35.639Z,9.57
2022-11-01T07:27:20.976Z,10.43
2022-11-01T07:30:07.533Z,12.10
2022-11-01T07:32:57.862Z,7.97
2022-11-01T07:35:43.266Z,10.83
2022-11-01T07:38:28.792Z,10.07
2022-11-01T07:41:13.898Z,9.90
2022-11-01T07:43:59.115Z,9.17
2022-11-01T07:46:44.234Z,8.77
2022-11-01T07:49:29.501Z,9.77
2022-11-01T07:52:14.721Z,10.93
2022-11-01T07:55:00.262Z,9.73
2022-11-01T07:57:46.824Z,9.20
2022-11-01T08:00:33.276Z,8.03
2022-11-01T08:03:22.100Z,11.13
2022-11-01T08:06:07.479Z,10.27
2022-11-01T08:08:53.361Z,7.50
2022-11-01T08:11:38.973Z,9.57
2022-11-01T08:14:24.204Z,8.23
2022-11-01T08:17:09.330Z,9.93
2022-11-01T08:19:54.758Z,7.10
2022-11-01T08:22:43.186Z,7.90
2022-11-01T08:25:29.182Z,8.57
2022-11-01T08:28:20.051Z,8.63
2022-11-01T08:31:07.431Z,8.63
2022-11-01T08:33:52.648Z,9.77
2022-11-01T08:36:38.088Z,7.80
2022-11-01T08:39:23.383Z,8.90
2022-11-01T08:42:09.584Z,8.77
2022-11-01T08:44:55.137Z,7.93
2022-11-01T08:47:40.953Z,8.10
2022-11-01T08:50:27.462Z,7.37
2022-11-01T08:53:14.709Z,7.43
2022-11-01T08:55:59.837Z,5.97
2022-11-01T08:58:45.077Z,9.13
2022-11-01T09:01:30.407Z,10.63
2022-11-01T09:04:15.954Z,7.50
2022-11-01T09:07:01.335Z,7.50
2022-11-01T09:09:46.635Z,9.43
2022-11-01T09:12:32.094Z,6.93
2022-11-01T09:15:17.531Z,7.13
2022-11-01T09:18:07.212Z,7.77
2022-11-01T09:20:56.551Z,6.50
2022-11-01T09:23:42.272Z,8.60
2022-11-01T09:26:27.373Z,11.13
2022-11-01T09:29:13.037Z,9.33
2022-11-01T09:31:58.439Z,8.50
2022-11-01T09:34:44.131Z,7.43
2022-11-01T09:37:29.664Z,5.80
2022-11-01T09:40:16.041Z,7.50
2022-11-01T09:43:03.479Z,7.83
2022-11-01T09:45:57.580Z,7.93
2022-11-01T09:48:44.197Z,6.83
2022-11-01T09:51:30.407Z,7.30
2022-11-01T09:54:19.362Z,8.63
2022-11-01T09:57:18.037Z,7.23
2022-11-01T10:00:18.555Z,6.83
2022-11-01T10:03:34.409Z,7.43
2022-11-01T10:06:24.902Z,8.00
2022-11-01T10:09:29.420Z,7.17
2022-11-01T10:12:43.179Z,7.97
2022-11-01T10:15:41.825Z,9.57
2022-11-01T10:18:28.226Z,7.20
2022-11-01T10:21:16.958Z,6.67
2022-11-01T10:24:07.269Z,6.97
2022-11-01T10:27:02.789Z,8.27
2022-11-01T10:30:04.483Z,6.47
2022-11-01T10:33:20.707Z,6.30
2022-11-01T10:36:12.531Z,5.90
2022-11-01T10:42:37.081Z,7.57
2022-11-01T10:45:23.294Z,6.60
2022-11-01T10:48:16.899Z,7.27
2022-11-01T10:51:06.113Z,6.60
2022-11-01T10:53:55.861Z,8.03
2022-11-01T10:56:46.068Z,5.30
2022-11-01T10:59:40.224Z,8.00
2022-11-01T11:02:32.127Z,7.70
2022-11-01T11:05:19.021Z,6.60
2022-11-01T11:08:14.279Z,6.60
2022-11-01T11:11:04.458Z,6.83
2022-11-01T11:13:54.987Z,6.43
2022-11-01T11:16:46.607Z,5.77
2022-11-01T11:19:38.944Z,9.53
2022-11-01T11:22:24.612Z,6.60
2022-11-01T11:25:19.069Z,7.10
2022-11-01T11:28:05.636Z,6.70
2022-11-01T11:30:51.606Z,5.87
2022-11-01T11:33:37.113Z,6.73
2022-11-01T11:36:38.266Z,5.73
2022-11-01T11:39:29.974Z,4.90
2022-11-01T11:42:21.856Z,6.47
2022-11-01T11:45:15.747Z,6.53
2022-11-01T11:48:21.883Z,6.30
2022-11-01T11:51:07.423Z,5.43
2022-11-01T11:54:37.694Z,6.40
2022-11-01T11:57:26.297Z,6.80
2022-11-01T12:00:23.294Z,6.53
2022-11-01T12:03:12.873Z,8.13
2022-11-01T12:06:05.591Z,11.03
2022-11-01T12:08:53.817Z,14.60
2022-11-01T12:11:45.154Z,9.53
2022-11-01T12:14:36.768Z,12.57
2022-11-01T12:17:43.781Z,9.60
2022-11-01T12:20:37.132Z,12.63
2022-11-01T12:23:35.081Z,10.30
2022-11-01T12:26:22.688Z,12.60
2022-11-01T12:29:31.772Z,10.67
2022-11-01T12:33:06.699Z,8.90
2022-11-01T12:35:54.445Z,9.33
2022-11-01T12:39:15.408Z,10.13
2022-11-01T12:42:04.576Z,10.73
2022-11-01T12:44:57.203Z,11.33
2022-11-01T12:47:47.951Z,9.63
2022-11-01T12:50:45.038Z,14.80
2022-11-01T12:53:44.811Z,10.07
2022-11-01T12:56:30.442Z,11.50
2022-11-01T12:59:22.411Z,9.87
2022-11-01T13:02:16.957Z,9.07
2022-11-01T13:05:44.099Z,8.43
2022-11-01T13:08:48.027Z,8.60
2022-11-01T13:12:13.436Z,8.40
2022-11-01T13:15:21.729Z,7.73
2022-11-01T13:18:33.432Z,9.57
2022-11-01T13:21:37.794Z,7.33
2022-11-01T13:24:59.290Z,8.00
2022-11-01T13:27:55.713Z,7.23
2022-11-01T13:30:49.921Z,6.67
2022-11-01T13:34:00.077Z,9.63
2022-11-01T13:36:54.602Z,7.13
2022-11-01T13:40:07.819Z,9.00
2022-11-01T13:43:10.449Z,7.60
2022-11-01T13:46:04.982Z,7.73
2022-11-01T13:48:53.958Z,11.90
2022-11-01T13:51:45.627Z,7.17
2022-11-01T13:55:00.192Z,7.53
2022-11-01T13:57:45.799Z,7.63
2022-11-01T14:00:42.708Z,8.10
2022-11-01T14:03:36.070Z,8.93
2022-11-01T14:09:25.869Z,7.57
2022-11-01T14:12:30.094Z,6.33
2022-11-01T14:15:20.876Z,8.23
2022-11-01T14:18:09.755Z,9.80
2022-11-01T14:20:56.857Z,8.87
2022-11-01T14:23:42.134Z,9.30
2022-11-01T14:27:01.111Z,11.07
2022-11-01T14:29:51.299Z,8.90
2022-11-01T14:32:37.184Z,9.63
2022-11-01T14:35:34.578Z,9.00
2022-11-01T14:38:29.161Z,11.63
2022-11-01T14:41:15.915Z,8.87
2022-11-01T14:44:12.173Z,10.53
2022-11-01T14:47:01.681Z,10.73
2022-11-01T14:49:48.114Z,8.43
2022-11-01T14:52:45.826Z,10.53
2022-11-01T14:55:37.032Z,9.33
2022-11-01T14:58:24.178Z,11.30
2022-11-01T15:01:17.825Z,10.03
2022-11-01T15:04:03.377Z,9.50
2022-11-01T15:06:49.641Z,9.53
2022-11-01T15:09:35.321Z,8.23
2022-11-01T15:12:21.001Z,9.77
2022-11-01T15:15:07.491Z,19.93
2022-11-01T15:17:54.981Z,12.17
2022-11-01T15:21:00.975Z,14.00
2022-11-01T15:23:48.616Z,12.90
2022-11-01T15:26:34.390Z,7.67
2022-11-01T15:29:25.004Z,10.73
2022-11-01T15:32:31.047Z,7.27
2022-11-01T15:35:26.475Z,11.07
2022-11-01T15:38:20.637Z,7.97
2022-11-01T15:41:27.518Z,8.90
2022-11-01T15:44:23.334Z,8.60
2022-11-01T15:47:22.048Z,9.00
2022-11-01T15:50:07.603Z,6.97
2022-11-01T15:52:53.606Z,8.67
2022-11-01T15:55:44.860Z,6.77
2022-11-01T15:58:37.949Z,7.83
2022-11-01T16:01:25.352Z,8.85
2022-11-01T16:04:14.587Z,7.37
2022-11-01T16:07:05.023Z,11.80
2022-11-01T16:10:00.324Z,11.27
2022-11-01T16:12:47.092Z,10.60
2022-11-01T16:15:33.948Z,11.57
2022-11-01T16:18:24.228Z,10.93
2022-11-01T16:21:19.171Z,19.97
2022-11-01T16:24:21.478Z,24.87
2022-11-01T16:27:08.732Z,24.07
2022-11-01T16:29:54.291Z,26.97
2022-11-01T16:32:39.501Z,29.63
2022-11-01T16:35:34.120Z,33.90
2022-11-01T16:38:28.936Z,29.93
2022-11-01T16:41:24.540Z,26.30
2022-11-01T16:44:16.042Z,33.83
2022-11-01T16:47:01.599Z,27.67
2022-11-01T16:49:52.458Z,27.33
2022-11-01T16:52:38.228Z,30.43
2022-11-01T16:55:27.198Z,28.50
2022-11-01T16:58:21.995Z,34.07
2022-11-01T17:01:23.699Z,28.55
2022-11-01T17:04:11.463Z,29.43
2022-11-01T17:06:58.756Z,26.40
2022-11-01T17:09:44.424Z,30.60
2022-11-01T17:12:30.161Z,27.40
2022-11-01T17:15:15.647Z,31.40
2022-11-01T17:18:08.587Z,29.00
2022-11-01T17:20:55.099Z,28.63
2022-11-01T17:23:40.659Z,29.30
2022-11-01T17:26:26.569Z,26.63
2022-11-01T17:29:16.812Z,28.67
2022-11-01T17:32:04.124Z,24.00
2022-11-01T17:34:50.382Z,24.27
2022-11-01T17:37:36.808Z,29.40
2022-11-01T17:40:27.014Z,35.43
2022-11-01T17:43:18.849Z,28.07
2022-11-01T17:46:13.635Z,20.80
2022-11-01T17:48:59.113Z,24.57
2022-11-01T17:51:44.668Z,26.20
2022-11-01T17:54:30.294Z,22.07
2022-11-01T17:57:15.609Z,22.90
2022-11-01T18:00:01.410Z,27.37
2022-11-01T18:02:47.130Z,26.40
2022-11-01T18:05:32.949Z,29.53
2022-11-01T18:08:22.222Z,23.10
2022-11-01T18:11:15.362Z,29.30
2022-11-01T18:14:26.935Z,31.15
2022-11-01T18:17:50.310Z,30.47
2022-11-01T18:20:46.171Z,27.23
2022-11-01T18:23:32.878Z,28.17
2022-11-01T18:26:22.978Z,28.27
2022-11-01T18:29:23.515Z,24.13
2022-11-01T18:32:19.650Z,28.33
2022-11-01T18:35:30.555Z,27.20
2022-11-01T18:38:36.564Z,29.03
2022-11-01T18:41:22.468Z,27.10
2022-11-01T18:44:12.628Z,28.10
2022-11-01T18:47:04.851Z,25.43
2022-11-01T18:49:50.849Z,28.57
2022-11-01T18:52:36.027Z,27.40
2022-11-01T18:55:21.337Z,32.23
2022-11-01T18:58:21.016Z,32.50
2022-11-01T19:01:32.606Z,31.93
2022-11-01T19:04:31.578Z,24.63
2022-11-01T19:07:22.856Z,27.50
2022-11-01T19:10:21.247Z,26.83
2022-11-01T19:13:13.295Z,28.57
2022-11-01T19:16:02.521Z,27.27
2022-11-01T19:18:49.830Z,28.90
2022-11-01T19:21:35.919Z,24.50
2022-11-01T19:24:24.369Z,29.47
2022-11-01T19:27:20.462Z,27.67
2022-11-01T19:30:21.100Z,29.43
2022-11-01T19:33:12.753Z,28.30
2022-11-01T19:35:59.478Z,29.03
2022-11-01T19:38:47.980Z,24.63
2022-11-01T19:41:34.695Z,27.13
2022-11-01T19:44:25.337Z,24.93
2022-11-01T19:47:28.868Z,29.47
2022-11-01T19:50:16.832Z,27.13
2022-11-01T19:53:02.005Z,20.80
2022-11-01T19:55:55.069Z,26.43
2022-11-01T19:58:51.861Z,27.85
2022-11-01T20:01:40.861Z,23.93
2022-11-01T20:04:29.167Z,24.17
2022-11-01T20:07:20.360Z,25.57
2022-11-01T20:10:06.623Z,22.43
2022-11-01T20:12:52.103Z,26.90
2022-11-01T20:15:37.255Z,25.27
2022-11-01T20:18:22.679Z,28.60
2022-11-01T20:21:08.124Z,27.40
2022-11-01T20:23:54.444Z,23.23
2022-11-01T20:26:40.231Z,22.80
2022-11-01T20:29:25.737Z,25.83
2022-11-01T20:32:11.025Z,22.53
2022-11-01T20:34:56.439Z,24.47
2022-11-01T20:37:42.988Z,27.63
2022-11-01T20:40:28.439Z,23.47
2022-11-01T20:43:13.543Z,26.97
2022-11-01T20:45:58.846Z,29.47
2022-11-01T20:48:45.399Z,28.07
2022-11-01T20:51:30.977Z,23.50
2022-11-01T20:54:18.054Z,26.13
2022-11-01T20:57:03.500Z,24.13
2022-11-01T20:59:51.071Z,27.87
2022-11-01T21:02:36.987Z,26.97
2022-11-01T21:05:29.490Z,22.47
2022-11-01T21:08:23.993Z,24.17
2022-11-01T21:11:24.447Z,20.60
2022-11-01T21:14:20.566Z,21.97
2022-11-01T21:17:16.988Z,24.63
2022-11-01T21:20:10.983Z,19.87
2022-11-01T21:23:01.606Z,23.13
2022-11-01T21:25:52.643Z,23.60
2022-11-01T21:28:50.643Z,21.47
2022-11-01T21:31:39.034Z,22.37
2022-11-01T21:34:27.816Z,21.67
2022-11-01T21:37:13.122Z,19.60
2022-11-01T21:40:05.178Z,19.77
2022-11-01T21:42:51.912Z,21.63
2022-11-01T21:45:37.274Z,22.33
2022-11-01T21:48:28.192Z,19.87
2022-11-01T21:51:13.748Z,22.03
2022-11-01T21:54:03.270Z,21.80
2022-11-01T21:56:50.136Z,21.73
2022-11-01T21:59:36.406Z,22.03
2022-11-01T22:02:21.790Z,19.60
2022-11-01T22:05:07.494Z,20.77
2022-11-01T22:07:52.908Z,21.90
2022-11-01T22:10:38.371Z,20.20
2022-11-01T22:13:23.644Z,21.37
2022-11-01T22:16:09.497Z,20.57
2022-11-01T22:18:54.830Z,23.60
2022-11-01T22:21:40.339Z,22.17
2022-11-01T22:24:25.759Z,19.47
2022-11-01T22:27:11.291Z,20.20
2022-11-01T22:29:56.464Z,20.43
2022-11-01T22:32:42.597Z,20.20
2022-11-01T22:35:27.971Z,22.60
2022-11-01T22:38:22.697Z,20.10
2022-11-01T22:41:17.166Z,16.83
2022-11-01T22:44:10.599Z,20.27
2022-11-01T22:46:59.338Z,21.20
2022-11-01T22:49:52.893Z,18.50
2022-11-01T22:52:43.693Z,17.27
2022-11-01T22:55:30.995Z,20.13
2022-11-01T22:58:32.869Z,18.33
2022-11-01T23:01:27.675Z,19.30
2022-11-01T23:04:21.516Z,18.00
2022-11-01T23:07:24.006Z,19.57
2022-11-01T23:10:27.881Z,19.03
2022-11-01T23:13:38.806Z,16.73
2022-11-01T23:16:36.143Z,20.20
2022-11-01T23:19:21.617Z,18.13
2022-11-01T23:22:19.991Z,17.73
2022-11-01T23:25:07.165Z,22.00
2022-11-01T23:27:54.277Z,17.40
2022-11-01T23:30:41.851Z,20.10
2022-11-01T23:33:40.006Z,17.40
2022-11-01T23:36:35.419Z,16.70
2022-11-01T23:39:21.507Z,17.37
2022-11-01T23:42:14.538Z,15.40
2022-11-01T23:44:59.970Z,13.60
2022-11-01T23:47:45.241Z,16.60
2022-11-01T23:50:34.335Z,15.43
2022-11-01T23:53:22.424Z,16.90
2022-11-01T23:56:09.163Z,15.40
2022-11-01T23:59:00.272Z,16.40
